Time;durP1;ratioP1;P1;durP2;ratioP2;P2;SDS_P1;SDS_P2;PMS_P1;PMS_P2;Temp;Humidity;BMP_temperature;BMP_pressure;BME280_temperature;BME280_humidity;BME280_pressure;Samples;Min_cycle;Max_cycle;Signal;HPM_P1;HPM_P2
2023/01/02 00:01:55;;;;;;;41.42;22.90;;;;;;;8.03;100.00;99853.23;4156795;84;28538;-79
2023/01/02 00:07:56;;;;;;;43.48;22.85;;;;;;;8.15;100.00;99843.64;4170162;84;28543;-79
2023/01/02 00:13:58;;;;;;;45.67;22.87;;;;;;;8.01;100.00;99844.55;4135075;84;28518;-80
2023/01/02 00:20:00;;;;;;;46.68;22.48;;;;;;;8.12;100.00;99829.27;4180467;84;28542;-79
2023/01/02 00:26:01;;;;;;;42.05;22.13;;;;;;;7.98;100.00;99817.66;4164579;84;28569;-79
2023/01/02 00:32:02;;;;;;;46.05;23.70;;;;;;;8.02;100.00;99824.77;4164248;84;28560;-78
2023/01/02 00:38:03;;;;;;;64.12;34.95;;;;;;;8.06;100.00;99835.43;4159323;84;28566;-79
2023/01/02 00:44:05;;;;;;;69.75;36.03;;;;;;;8.04;100.00;99838.29;4135930;84;28629;-79
2023/01/02 00:50:06;;;;;;;68.28;35.90;;;;;;;8.15;100.00;99843.64;4140571;83;28464;-79
2023/01/02 00:56:07;;;;;;;44.45;23.05;;;;;;;8.13;100.00;99834.13;4114306;84;28567;-79
2023/01/02 01:02:08;;;;;;;39.90;20.10;;;;;;;7.85;100.00;99834.45;4137121;84;28508;-80
2023/01/02 01:08:09;;;;;;;52.20;27.82;;;;;;;7.19;100.00;99825.59;4124251;84;28554;-80
2023/01/02 01:14:10;;;;;;;46.58;24.20;;;;;;;7.16;100.00;99827.81;4158867;83;28527;-81
2023/01/02 01:20:11;;;;;;;66.65;35.45;;;;;;;7.49;100.00;99830.84;4093924;84;28533;-80
2023/01/02 01:26:12;;;;;;;53.28;28.38;;;;;;;7.51;100.00;99830.13;4102194;84;28483;-80
2023/01/02 01:32:14;;;;;;;51.75;26.33;;;;;;;7.67;100.00;99806.81;4139495;84;28529;-79
2023/01/02 01:38:15;;;;;;;55.88;30.23;;;;;;;7.51;100.00;99802.03;4154768;82;28532;-80
2023/01/02 01:44:42;;;;;;;43.55;22.85;;;;;;;7.46;100.00;99807.15;4197885;81;28497;-80
2023/01/02 01:50:43;;;;;;;52.65;27.60;;;;;;;7.20;100.00;99808.53;4212040;81;28528;-79
2023/01/02 01:56:48;;;;;;;44.33;23.05;;;;;;;7.10;100.00;99803.50;4219725;82;28594;-80
2023/01/02 02:02:51;;;;;;;43.60;22.45;;;;;;;6.80;100.00;99798.23;4244810;81;28513;-79
2023/01/02 02:09:08;;;;;;;44.15;21.97;;;;;;;6.78;100.00;99792.25;4162951;84;28603;-80
2023/01/02 02:15:12;;;;;;;40.40;20.90;;;;;;;6.63;100.00;99790.09;4154765;83;28542;-80
2023/01/02 02:21:23;;;;;;;41.15;21.27;;;;;;;6.61;100.00;99784.12;4169321;82;28526;-80
2023/01/02 02:27:30;;;;;;;35.90;18.52;;;;;;;6.52;100.00;99798.91;4175152;82;28475;-80
2023/01/02 02:33:41;;;;;;;38.98;18.92;;;;;;;6.37;100.00;99789.56;4242172;82;28543;-81
2023/01/02 02:40:01;;;;;;;33.60;17.52;;;;;;;6.41;100.00;99785.53;4222061;82;28555;-81
2023/01/02 02:46:24;;;;;;;36.53;18.77;;;;;;;6.30;100.00;99793.17;4229600;82;28539;-81
2023/01/02 02:52:37;;;;;;;35.73;18.92;;;;;;;6.34;100.00;99779.27;4213466;82;28551;-82
2023/01/02 02:58:39;;;;;;;34.75;17.67;;;;;;;6.28;100.00;99782.17;4232512;82;28552;-81
2023/01/02 03:04:43;;;;;;;37.45;18.87;;;;;;;6.21;100.00;99773.22;4231926;82;28602;-82
2023/01/02 03:10:51;;;;;;;35.98;18.67;;;;;;;6.18;100.00;99764.75;4234105;82;28521;-80
2023/01/02 03:16:55;;;;;;;33.13;17.23;;;;;;;6.32;100.00;99767.94;4273915;81;28593;-81
2023/01/02 03:23:00;;;;;;;38.70;18.20;;;;;;;6.07;100.00;99754.85;4248367;82;28493;-80
2023/01/02 03:29:05;;;;;;;33.35;17.60;;;;;;;6.11;100.00;99754.83;4240879;82;28562;-81
2023/01/02 03:35:10;;;;;;;34.53;17.37;;;;;;;5.94;100.00;99765.31;4155249;83;28540;-79
2023/01/02 03:41:17;;;;;;;30.80;16.70;;;;;;;5.87;100.00;99765.22;4182121;82;28525;-79
2023/01/02 03:47:33;;;;;;;30.97;17.02;;;;;;;6.04;100.00;99761.06;4219966;82;28582;-80
2023/01/02 03:53:35;;;;;;;32.30;16.10;;;;;;;5.95;100.00;99754.95;4162244;83;28586;-80
2023/01/02 04:00:07;;;;;;;33.30;17.23;;;;;;;5.88;100.00;99745.52;4219953;83;28502;-80
2023/01/02 04:06:17;;;;;;;32.03;17.00;;;;;;;5.92;100.00;99750.00;4228226;82;28637;-80
2023/01/02 04:12:20;;;;;;;31.23;16.48;;;;;;;6.05;100.00;99750.73;4276764;81;28534;-79
2023/01/02 04:18:27;;;;;;;34.00;16.95;;;;;;;5.90;100.00;99748.83;4223986;82;28584;-80
2023/01/02 04:24:31;;;;;;;33.05;16.60;;;;;;;5.91;100.00;99755.02;4144432;83;28630;-80
2023/01/02 04:30:34;;;;;;;29.15;16.17;;;;;;;6.01;100.00;99747.56;4220100;83;28544;-79
2023/01/02 04:36:39;;;;;;;32.73;17.67;;;;;;;5.91;100.00;99746.48;4233195;82;28581;-79
2023/01/02 04:42:41;;;;;;;29.48;14.98;;;;;;;5.95;100.00;99733.11;4224379;83;28548;-80
2023/01/02 04:48:42;;;;;;;36.53;18.35;;;;;;;5.91;100.00;99735.81;4150860;83;28583;-79
2023/01/02 04:54:43;;;;;;;35.48;17.60;;;;;;;5.70;100.00;99735.20;4208561;83;28523;-80
2023/01/02 05:00:44;;;;;;;34.95;18.50;;;;;;;5.72;100.00;99727.32;4195441;83;28547;-79
2023/01/02 05:06:45;;;;;;;46.92;23.83;;;;;;;5.71;100.00;99732.34;4195126;83;28540;-79
2023/01/02 05:12:47;;;;;;;49.00;27.05;;;;;;;5.61;100.00;99725.09;4193338;83;28569;-80
2023/01/02 05:18:48;;;;;;;43.52;23.30;;;;;;;5.65;100.00;99711.73;4200364;82;28553;-80
2023/01/02 05:24:49;;;;;;;51.50;29.23;;;;;;;5.55;100.00;99707.98;4181654;82;28588;-81
2023/01/02 05:30:50;;;;;;;47.48;27.07;;;;;;;5.63;100.00;99704.43;4196952;81;28519;-82
2023/01/02 05:36:51;;;;;;;51.92;26.90;;;;;;;5.66;100.00;99699.20;4165630;82;28536;-80
2023/01/02 05:42:52;;;;;;;50.55;26.40;;;;;;;5.42;100.00;99692.62;4193639;82;28711;-80
2023/01/02 05:48:53;;;;;;;50.48;26.95;;;;;;;5.32;100.00;99697.38;4148928;83;28604;-81
2023/01/02 05:54:54;;;;;;;50.58;27.50;;;;;;;5.37;100.00;99684.84;4161408;83;28501;-81
2023/01/02 06:00:55;;;;;;;49.98;27.20;;;;;;;5.17;100.00;99693.34;4172735;83;28971;-81
2023/01/02 06:06:58;;;;;;;48.55;26.87;;;;;;;5.21;100.00;99685.30;4189997;83;28573;-81
2023/01/02 06:12:59;;;;;;;49.40;26.75;;;;;;;5.24;100.00;99684.12;4186099;83;28509;-88
2023/01/02 06:19:00;;;;;;;47.03;25.92;;;;;;;5.32;100.00;99677.88;4184713;83;28518;-87
2023/01/02 06:25:01;;;;;;;46.42;25.35;;;;;;;5.11;100.00;99682.05;4176481;83;28624;-85
2023/01/02 06:31:08;;;;;;;47.43;25.85;;;;;;;5.13;100.00;99676.03;4187156;83;28596;-88
2023/01/02 06:37:09;;;;;;;48.83;25.65;;;;;;;5.16;100.00;99683.69;4176611;83;28639;-87
2023/01/02 06:43:36;;;;;;;47.60;26.45;;;;;;;5.16;100.00;99695.69;4192296;83;28533;-91
2023/01/02 06:49:49;;;;;;;50.85;27.45;;;;;;;5.35;100.00;99687.69;4137488;83;28557;-85
2023/01/02 06:55:56;;;;;;;56.70;29.32;;;;;;;5.55;100.00;99694.64;4198323;82;28557;-84
2023/01/02 07:01:57;;;;;;;56.95;29.82;;;;;;;5.46;100.00;99706.92;4189169;83;28501;-84
2023/01/02 07:08:01;;;;;;;52.90;26.77;;;;;;;5.75;100.00;99710.13;4195357;83;28592;-84
2023/01/02 07:14:02;;;;;;;50.28;26.50;;;;;;;5.66;100.00;99718.73;4204624;83;28537;-84
2023/01/02 07:20:05;;;;;;;45.70;24.77;;;;;;;5.75;100.00;99719.98;4197013;83;28523;-84
2023/01/02 07:26:07;;;;;;;46.63;25.50;;;;;;;5.74;100.00;99727.15;4180716;83;28513;-83
2023/01/02 07:32:08;;;;;;;53.55;26.23;;;;;;;5.88;100.00;99722.84;4154049;83;28612;-84
2023/01/02 07:38:12;;;;;;;45.92;24.70;;;;;;;5.99;100.00;99712.22;4249020;82;28522;-84
2023/01/02 07:44:13;;;;;;;45.70;25.08;;;;;;;6.01;100.00;99714.20;4192957;81;28508;-84
2023/01/02 07:50:14;;;;;;;54.30;26.52;;;;;;;6.35;100.00;99708.80;4105281;84;28516;-84
2023/01/02 07:56:18;;;;;;;53.40;26.35;;;;;;;6.59;100.00;99708.14;4126454;83;28558;-84
2023/01/02 08:02:19;;;;;;;52.95;26.37;;;;;;;6.83;100.00;99704.82;4197841;83;28595;-84
2023/01/02 08:08:21;;;;;;;54.20;26.85;;;;;;;7.01;100.00;99702.19;4193780;83;28551;-84
2023/01/02 08:14:22;;;;;;;49.40;25.37;;;;;;;6.94;100.00;99699.45;4172443;83;28592;-84
2023/01/02 08:20:24;;;;;;;54.03;26.90;;;;;;;7.13;100.00;99703.33;4149238;82;28565;-83
2023/01/02 08:26:25;;;;;;;52.15;26.27;;;;;;;7.33;100.00;99710.70;4141964;83;28560;-85
2023/01/02 08:32:27;;;;;;;50.67;25.60;;;;;;;7.51;100.00;99710.25;4171985;83;28890;-84
2023/01/02 08:38:28;;;;;;;49.33;26.05;;;;;;;7.59;100.00;99706.06;4194473;83;28564;-84
2023/01/02 08:44:29;;;;;;;51.23;26.55;;;;;;;7.78;100.00;99705.06;4200005;82;28525;-83
2023/01/02 08:50:30;;;;;;;51.50;26.25;;;;;;;7.85;100.00;99701.92;4170797;83;28583;-84
2023/01/02 08:56:32;;;;;;;49.98;26.17;;;;;;;7.93;100.00;99696.91;4196916;83;28485;-84
2023/01/02 09:02:33;;;;;;;66.97;30.48;;;;;;;8.06;100.00;99698.31;4199174;83;28525;-84
2023/01/02 09:08:35;;;;;;;59.33;28.70;;;;;;;8.21;100.00;99690.67;4179189;82;28622;-84
2023/01/02 09:14:36;;;;;;;58.00;29.00;;;;;;;8.47;100.00;99688.61;4197881;83;28490;-84
2023/01/02 09:20:39;;;;;;;65.72;30.17;;;;;;;8.68;100.00;99679.30;4199299;83;28619;-81
2023/01/02 09:26:41;;;;;;;57.90;30.05;;;;;;;8.90;100.00;99667.40;4169325;83;28517;-84
2023/01/02 09:32:42;;;;;;;54.98;28.75;;;;;;;8.99;100.00;99668.52;4174041;83;28565;-83
2023/01/02 09:38:43;;;;;;;54.08;27.37;;;;;;;9.12;100.00;99653.80;4179602;83;28529;-83
2023/01/02 09:44:52;;;;;;;54.45;29.67;;;;;;;9.24;100.00;99637.07;4175214;83;28547;-84
2023/01/02 09:50:54;;;;;;;60.78;32.25;;;;;;;9.12;100.00;99632.33;4189908;83;28614;-84
2023/01/02 09:57:04;;;;;;;57.88;30.95;;;;;;;9.38;100.00;99631.18;4217471;83;28541;-83
2023/01/02 10:03:31;;;;;;;64.15;31.15;;;;;;;9.11;100.00;99618.61;4221980;83;28573;-83
2023/01/02 10:09:48;;;;;;;58.05;29.92;;;;;;;9.52;100.00;99615.85;4221792;83;28501;-82
2023/01/02 10:15:52;;;;;;;55.65;29.18;;;;;;;9.90;100.00;99619.16;4219957;83;28557;-83
2023/01/02 10:21:57;;;;;;;57.53;29.98;;;;;;;10.21;100.00;99611.40;4218106;83;28586;-83
2023/01/02 10:28:35;;;;;;;53.85;29.12;;;;;;;10.16;100.00;99595.38;4202543;83;28477;-81
2023/01/02 10:34:42;;;;;;;57.95;28.77;;;;;;;10.54;100.00;99588.91;4217472;83;28489;-82
2023/01/02 10:40:47;;;;;;;54.88;28.83;;;;;;;10.84;100.00;99573.48;4193287;83;28593;-82
2023/01/02 10:46:49;;;;;;;48.67;27.13;;;;;;;10.95;100.00;99561.16;4177168;83;28497;-83
2023/01/02 10:52:52;;;;;;;50.25;27.42;;;;;;;10.95;100.00;99561.16;4180814;83;50685;-82
2023/01/02 10:58:54;;;;;;;54.15;28.60;;;;;;;10.91;100.00;99552.70;4168722;83;28541;-83
2023/01/02 11:04:58;;;;;;;48.98;26.73;;;;;;;10.86;100.00;99535.07;4185278;83;28547;-83
2023/01/02 11:11:02;;;;;;;51.28;27.02;;;;;;;10.88;100.00;99530.28;4174181;83;28673;-83
2023/01/02 11:17:19;;;;;;;49.77;27.10;;;;;;;11.07;100.00;99525.75;4198323;83;28449;-84
2023/01/02 11:23:24;;;;;;;56.85;28.40;;;;;;;11.06;100.00;99518.72;4170254;83;28614;-82
2023/01/02 11:29:30;;;;;;;52.67;27.67;;;;;;;11.21;100.00;99506.80;4135562;83;28578;-84
2023/01/02 11:35:47;;;;;;;46.15;26.02;;;;;;;11.53;100.00;99493.98;4184804;83;28509;-83
2023/01/02 11:48:16;;;;;;;43.00;23.50;;;;;;;11.68;100.00;99476.62;4153463;83;20442;-83
2023/01/02 11:54:23;;;;;;;48.68;24.63;;;;;;;11.74;100.00;99471.65;4162240;83;28527;-84
2023/01/02 12:00:25;;;;;;;;;;;;;;;11.81;100.00;99471.05;4176023;83;28498;-82
2023/01/02 12:06:55;;;;;;;46.42;24.43;;;;;;;11.83;100.00;99459.50;4216550;83;20485;-84
2023/01/02 12:13:18;;;;;;;48.92;24.37;;;;;;;11.85;100.00;99456.05;4190709;83;28489;-84
2023/01/02 12:19:44;;;;;;;44.05;24.05;;;;;;;12.09;99.56;99448.09;4197535;83;28536;-82
2023/01/02 12:26:01;;;;;;;48.17;24.53;;;;;;;12.02;98.49;99451.87;4196320;83;28638;-83
2023/01/02 12:32:24;;;;;;;40.70;22.02;;;;;;;12.19;98.58;99450.20;4198361;83;28545;-83
2023/01/02 12:38:31;;;;;;;42.13;21.68;;;;;;;12.24;97.62;99437.37;4198385;83;28526;-84
2023/01/02 12:44:47;;;;;;;48.35;23.80;;;;;;;12.29;97.24;99442.07;4207384;82;28507;-84
2023/01/02 12:57:23;;;;;;;45.30;23.87;;;;;;;12.43;96.59;99439.98;4177528;83;28482;-83
2023/01/02 13:03:37;;;;;;;41.33;21.05;;;;;;;12.49;96.09;99440.38;4193158;83;28557;-83
2023/01/02 13:09:41;;;;;;;41.40;20.72;;;;;;;12.58;95.42;99436.28;4179324;83;28528;-83
2023/01/02 13:15:48;;;;;;;44.10;20.92;;;;;;;12.73;95.05;99433.11;4161476;83;29625;-83
2023/01/02 13:21:56;;;;;;;40.08;21.35;;;;;;;12.73;94.72;99452.00;4185002;83;28508;-83
2023/01/02 13:27:59;;;;;;;43.52;21.25;;;;;;;12.79;94.07;99461.02;4185978;83;28508;-83
2023/01/02 13:34:13;;;;;;;42.03;21.00;;;;;;;12.88;94.59;99463.66;4176889;83;28461;-83
2023/01/02 13:40:18;;;;;;;36.08;19.20;;;;;;;12.91;94.83;99461.03;4197095;83;28607;-83
2023/01/02 13:46:28;;;;;;;36.20;19.95;;;;;;;12.85;95.31;99457.39;4190460;83;28547;-83
2023/01/02 13:52:29;;;;;;;36.08;20.12;;;;;;;12.85;96.55;99460.09;4195756;83;28532;-83
2023/01/02 13:58:40;;;;;;;36.28;18.87;;;;;;;12.73;97.35;99458.74;4179134;83;28527;-89
2023/01/02 14:04:42;;;;;;;36.58;17.92;;;;;;;12.68;97.96;99459.98;4199039;83;28510;-86
2023/01/02 14:10:44;;;;;;;33.20;17.60;;;;;;;12.59;98.95;99456.80;4197265;83;28501;-83
2023/01/02 14:16:49;;;;;;;32.28;17.80;;;;;;;12.45;99.96;99456.23;4220054;83;28548;-82
2023/01/02 14:23:08;;;;;;;35.60;18.17;;;;;;;12.31;100.00;99451.58;4179515;83;28548;-82
2023/01/02 14:29:11;;;;;;;32.98;18.10;;;;;;;12.13;100.00;99461.38;4196219;83;28542;-82
2023/01/02 14:35:16;;;;;;;35.50;20.05;;;;;;;12.01;100.00;99479.38;4195979;83;28578;-82
2023/01/02 14:48:09;;;;;;;38.33;19.82;;;;;;;11.69;100.00;99472.33;4208898;83;28620;-83
2023/01/02 14:54:20;;;;;;;39.03;21.17;;;;;;;11.50;100.00;99477.45;4196579;83;28533;-82
2023/01/02 15:00:30;;;;;;;43.85;24.32;;;;;;;11.30;100.00;99479.34;4218210;82;28493;-82
2023/01/02 15:06:40;;;;;;;43.92;23.55;;;;;;;11.18;100.00;99481.14;4161526;83;28502;-83
2023/01/02 15:13:02;;;;;;;44.25;23.00;;;;;;;11.01;100.00;99491.14;4159646;83;28575;-82
2023/01/02 15:19:03;;;;;;;47.10;24.67;;;;;;;10.84;100.00;99494.12;4175838;83;28492;-82
2023/01/02 15:25:10;;;;;;;47.58;27.42;;;;;;;10.79;100.00;99499.33;4160924;83;28573;-83
2023/01/02 15:31:13;;;;;;;44.03;23.70;;;;;;;10.67;100.00;99504.59;4166382;83;28556;-82
2023/01/02 15:37:18;;;;;;;40.70;21.77;;;;;;;10.54;100.00;99505.55;4158844;83;28605;-82
2023/01/02 15:49:42;;;;;;;43.23;22.98;;;;;;;10.24;100.00;99506.97;4197927;83;28515;-82
2023/01/02 15:55:43;;;;;;;46.15;24.12;;;;;;;10.09;100.00;99510.48;4179424;83;28567;-82
2023/01/02 16:01:44;;;;;;;48.48;24.55;;;;;;;9.92;100.00;99522.27;4169679;83;28523;-82
2023/01/02 16:07:54;;;;;;;48.48;23.57;;;;;;;9.94;100.00;99522.33;4213361;83;28526;-81
2023/01/02 16:20:20;;;;;;;46.18;23.12;;;;;;;9.98;100.00;99529.45;4182946;83;28614;-86
2023/01/02 16:26:24;;;;;;;46.08;23.90;;;;;;;9.81;100.00;99529.13;4196015;83;28558;-86
2023/01/02 16:32:29;;;;;;;44.35;23.77;;;;;;;9.87;100.00;99537.67;4194445;83;28512;-85
2023/01/02 16:38:33;;;;;;;48.90;26.25;;;;;;;9.82;100.00;99525.39;4185899;83;28594;-86
2023/01/02 16:44:40;;;;;;;44.63;24.98;;;;;;;9.65;100.00;99523.72;4166630;83;28601;-86
2023/01/02 16:50:44;;;;;;;46.10;24.85;;;;;;;9.55;100.00;99516.13;4196295;83;28537;-87
2023/01/02 16:56:46;;;;;;;57.00;26.20;;;;;;;9.45;100.00;99524.11;4180251;83;28524;-87
2023/01/02 17:02:48;;;;;;;45.83;25.62;;;;;;;9.60;100.00;99526.53;4197771;83;28591;-87
2023/01/02 17:08:50;;;;;;;52.95;26.93;;;;;;;9.63;100.00;99526.61;4194172;83;28539;-88
2023/01/02 17:14:51;;;;;;;48.35;26.07;;;;;;;9.54;100.00;99519.86;4196275;83;28533;-86
2023/01/02 17:20:57;;;;;;;46.90;25.43;;;;;;;9.38;100.00;99509.88;4196377;83;28575;-89
2023/01/02 17:26:58;;;;;;;48.15;26.12;;;;;;;9.48;100.00;99521.53;4192569;83;28521;-88
2023/01/02 17:32:59;;;;;;;50.05;27.05;;;;;;;9.48;100.00;99534.41;4132927;83;28564;-89
2023/01/02 17:39:03;;;;;;;53.33;28.05;;;;;;;9.48;100.00;99538.44;4193427;83;28485;-90
2023/01/02 17:45:06;;;;;;;52.17;27.73;;;;;;;9.42;100.00;99533.91;4189901;83;28521;-87
2023/01/02 17:51:08;;;;;;;49.33;27.22;;;;;;;9.46;100.00;99529.78;4196833;83;28586;-92
2023/01/02 17:57:16;;;;;;;50.80;26.60;;;;;;;9.35;100.00;99517.83;4189276;83;28470;-89
2023/01/02 18:03:20;;;;;;;52.30;26.65;;;;;;;9.20;100.00;99507.88;4195437;83;28635;-87
2023/01/02 18:09:23;;;;;;;48.25;26.23;;;;;;;9.16;100.00;99514.68;4120135;83;28633;-86
2023/01/02 18:15:27;;;;;;;48.92;27.10;;;;;;;8.99;100.00;99513.80;4209118;82;28528;-88
2023/01/02 18:21:33;;;;;;;50.25;28.32;;;;;;;9.03;100.00;99520.92;4109177;84;28627;-88
2023/01/02 18:27:37;;;;;;;51.07;26.57;;;;;;;8.88;100.00;99520.61;4103489;84;28587;-86
2023/01/02 18:33:41;;;;;;;50.10;27.30;;;;;;;8.72;100.00;99514.34;4087208;84;28511;-88
2023/01/02 18:46:16;;;;;;;53.65;28.62;;;;;;;8.62;100.00;99524.97;4134513;83;28590;-87
2023/01/02 19:06:59;;;;;;;61.73;31.60;;;;;;;8.96;100.00;99536.19;3970607;88;28543;-87
2023/01/02 19:13:38;;;;;;;61.10;33.33;;;;;;;9.11;100.00;99560.94;3767369;91;28548;-85
2023/01/02 19:26:42;;;;;;;60.28;31.57;;;;;;;9.43;100.00;99550.34;3818287;89;28558;-89
2023/01/02 19:32:50;;;;;;;61.00;34.25;;;;;;;9.45;100.00;99561.69;3865913;87;28559;-88
2023/01/02 19:38:51;;;;;;;66.37;35.20;;;;;;;9.41;100.00;99560.44;4081197;84;28535;-87
2023/01/02 19:45:33;;;;;;;71.28;35.85;;;;;;;9.32;100.00;99554.48;3995091;86;28572;-85
2023/01/02 19:57:45;;;;;;;73.87;39.08;;;;;;;9.40;100.00;99536.52;4174863;85;28520;-83
2023/01/02 20:03:49;;;;;;;87.62;45.67;;;;;;;9.35;100.00;99551.37;4200859;83;28559;-83
2023/01/02 20:09:52;;;;;;;82.22;44.58;;;;;;;9.23;100.00;99554.94;4196627;83;28546;-84
2023/01/02 20:15:54;;;;;;;83.35;44.93;;;;;;;9.15;100.00;99560.81;4197912;83;28618;-89
2023/01/02 20:22:01;;;;;;;82.92;44.40;;;;;;;9.13;100.00;99559.37;4199669;83;28502;-91
2023/01/02 20:28:05;;;;;;;74.90;40.20;;;;;;;8.98;100.00;99567.13;4217646;83;28536;-91
2023/01/02 20:34:19;;;;;;;70.50;38.67;;;;;;;8.81;100.00;99561.88;4213003;83;28548;-90
2023/01/02 20:40:46;;;;;;;66.20;36.00;;;;;;;8.91;100.00;99559.10;4230676;83;28443;-91
2023/01/02 20:46:49;;;;;;;64.72;34.75;;;;;;;8.96;100.00;99574.57;4200163;83;28578;-85
2023/01/02 20:52:50;;;;;;;64.70;34.92;;;;;;;8.87;100.00;99575.80;4224122;83;28499;-87
2023/01/02 20:58:52;;;;;;;63.68;34.10;;;;;;;9.02;100.00;99587.13;4211510;82;28492;-87
2023/01/02 21:04:55;;;;;;;63.40;33.02;;;;;;;9.08;100.00;99594.86;4083713;86;28564;-85
2023/01/02 21:11:00;;;;;;;59.13;33.67;;;;;;;9.12;100.00;99587.23;4139646;84;28584;-85
2023/01/02 21:17:01;;;;;;;56.68;31.00;;;;;;;9.12;100.00;99591.25;4216883;83;28512;-84
2023/01/02 21:23:02;;;;;;;51.70;28.27;;;;;;;9.16;100.00;99583.09;4219871;83;28534;-88
2023/01/02 21:29:04;;;;;;;57.23;29.30;;;;;;;9.15;100.00;99590.83;4219405;83;28529;-87
2023/01/02 21:35:05;;;;;;;52.35;27.85;;;;;;;9.19;100.00;99604.96;4221571;83;29237;-86
2023/01/02 21:47:27;;;;;;;52.15;29.37;;;;;;;9.19;100.00;99622.94;4202429;83;28577;-88
2023/01/02 21:53:30;;;;;;;49.03;27.70;;;;;;;9.22;100.00;99629.22;4197221;83;28480;-88
2023/01/02 21:59:33;;;;;;;52.45;28.52;;;;;;;9.27;100.00;99652.75;4193857;83;28585;-90
2023/01/02 22:05:34;;;;;;;53.92;29.85;;;;;;;9.33;100.00;99664.00;4191375;83;28526;-90
2023/01/02 22:11:54;;;;;;;61.68;32.28;;;;;;;9.25;100.00;99667.70;4191188;83;28534;-90
2023/01/02 22:17:58;;;;;;;58.17;32.17;;;;;;;9.23;100.00;99664.94;4199225;83;28555;-90
2023/01/02 22:23:59;;;;;;;56.40;31.62;;;;;;;9.06;100.00;99670.70;4195014;83;28543;-93
2023/01/02 22:30:05;;;;;;;63.98;35.65;;;;;;;9.00;100.00;99675.53;4172856;83;28569;-91
2023/01/02 22:36:07;;;;;;;66.80;36.40;;;;;;;8.88;100.00;99683.38;4196423;83;28525;-92
2023/01/02 22:48:37;;;;;;;57.30;30.80;;;;;;;8.77;100.00;99664.18;4175543;83;28498;-91
2023/01/02 22:54:38;;;;;;;59.35;31.20;;;;;;;8.68;100.00;99671.26;4215109;83;28548;-91
2023/01/02 23:00:39;;;;;;;55.92;28.85;;;;;;;8.62;100.00;99672.89;4221064;83;28500;-86
2023/01/02 23:06:40;;;;;;;53.90;29.10;;;;;;;8.69;100.00;99684.97;4218749;83;28562;-89
2023/01/02 23:12:42;;;;;;;50.25;28.47;;;;;;;8.72;100.00;99688.08;4219846;83;28512;-86
2023/01/02 23:25:06;;;;;;;52.60;27.35;;;;;;;8.53;100.00;99701.75;4214734;83;28527;-91
2023/01/02 23:31:06;;;;;;;51.53;26.50;;;;;;;8.47;100.00;99704.69;4226131;83;28616;-91
2023/01/02 23:37:07;;;;;;;45.60;25.68;;;;;;;8.48;100.00;99711.70;4221199;83;28493;-93
2023/01/02 23:43:08;;;;;;;44.95;23.92;;;;;;;8.35;100.00;99700.41;4223000;83;28996;-93
2023/01/02 23:49:10;;;;;;;47.43;24.72;;;;;;;8.40;100.00;99711.06;4209963;83;28555;-94
2023/01/02 23:55:11;;;;;;;43.98;22.98;;;;;;;8.34;100.00;99718.85;4201215;83;28529;-94
